Time;durP1;ratioP1;P1;durP2;ratioP2;P2;SDS_P1;SDS_P2;PMS_P1;PMS_P2;Temp;Humidity;BMP_temperature;BMP_pressure;BME280_temperature;BME280_humidity;BME280_pressure;Samples;Min_cycle;Max_cycle;Signal;HPM_P1;HPM_P2
2022/06/16 00:00:32;;;;;;;6.68;3.95;;;435.40;2355.20;;;;;;5115357;28;20043;-81
2022/06/16 00:02:58;;;;;;;8.65;4.45;;;435.30;2355.20;;;;;;5115646;28;20032;-80
2022/06/16 00:05:28;;;;;;;8.57;4.45;;;410.50;2355.20;;;;;;5117386;28;20061;-79
2022/06/16 00:07:54;;;;;;;6.45;4.32;;;410.40;2355.20;;;;;;5132539;28;20023;-78
2022/06/16 00:10:20;;;;;;;7.45;4.50;;;410.30;2355.20;;;;;;5132511;28;20473;-80
2022/06/16 00:12:46;;;;;;;8.73;4.07;;;410.30;2355.20;;;;;;5119858;28;20531;-80
2022/06/16 00:15:16;;;;;;;10.13;4.55;;;410.30;2355.20;;;;;;5114875;28;20106;-79
2022/06/16 00:17:42;;;;;;;6.65;4.47;;;410.40;2355.20;;;;;;5116396;28;20091;-80
2022/06/16 00:20:09;;;;;;;8.70;4.35;;;410.30;2355.20;;;;;;5115109;28;20461;-78
2022/06/16 00:22:36;;;;;;;8.43;4.35;;;410.30;2355.20;;;;;;5114848;28;20053;-79
2022/06/16 00:25:02;;;;;;;12.15;4.40;;;410.30;2355.20;;;;;;5116279;28;20068;-80
2022/06/16 00:27:28;;;;;;;7.72;4.95;;;410.30;2355.20;;;;;;5114981;28;20030;-80
2022/06/16 00:29:54;;;;;;;8.45;4.45;;;410.30;2355.20;;;;;;5114652;28;20024;-79
2022/06/16 00:32:20;;;;;;;8.05;4.35;;;410.20;2355.20;;;;;;5114702;28;20473;-81
2022/06/16 00:34:45;;;;;;;9.35;3.80;;;410.20;2355.20;;;;;;5114893;28;20041;-79
2022/06/16 00:37:11;;;;;;;6.18;3.90;;;410.10;2355.20;;;;;;5114450;28;20030;-79
2022/06/16 00:39:37;;;;;;;10.00;4.05;;;410.00;2355.20;;;;;;5114569;28;20119;-80
2022/06/16 00:42:15;;;;;;;8.75;4.05;;;409.90;2355.20;;;;;;5114416;28;20123;-80
2022/06/16 00:44:45;;;;;;;7.07;3.97;;;410.00;2355.20;;;;;;5114613;28;20020;-81
2022/06/16 00:47:11;;;;;;;8.05;4.68;;;409.90;2355.20;;;;;;5115845;28;20031;-81
2022/06/16 00:49:40;;;;;;;7.70;4.65;;;409.90;2355.20;;;;;;5114240;28;20035;-80
2022/06/16 00:52:14;;;;;;;6.10;3.83;;;409.80;2355.20;;;;;;5114388;28;20024;-81
2022/06/16 00:55:05;;;;;;;5.32;4.15;;;409.80;2355.20;;;;;;5113772;28;20047;-80
2022/06/16 00:57:35;;;;;;;6.10;4.18;;;409.80;2355.20;;;;;;5114090;28;20035;-81
2022/06/16 01:00:09;;;;;;;10.88;4.43;;;409.80;2355.20;;;;;;5114414;28;20119;-80
2022/06/16 01:02:35;;;;;;;10.85;3.85;;;409.80;2355.20;;;;;;5114274;28;20110;-81
2022/06/16 01:05:01;;;;;;;7.95;4.30;;;409.80;2355.20;;;;;;5114000;28;20123;-80
2022/06/16 01:07:31;;;;;;;9.68;4.40;;;409.90;2355.20;;;;;;5114241;28;20024;-80
2022/06/16 01:10:00;;;;;;;9.18;3.90;;;409.80;2355.20;;;;;;5113912;28;20047;-80
2022/06/16 01:16:16;;;;;;;11.02;4.93;;;409.60;2355.20;;;;;;5115039;28;20400;-80
2022/06/16 01:18:58;;;;;;;5.55;3.92;;;409.70;2355.20;;;;;;5091572;28;20032;-81
2022/06/16 01:21:35;;;;;;;7.28;4.75;;;409.60;2355.20;;;;;;5114071;28;20027;-81
2022/06/16 01:24:19;;;;;;;9.48;4.75;;;384.90;2329.60;;;;;;5114652;28;20027;-80
2022/06/16 01:26:57;;;;;;;11.93;6.82;;;384.90;2329.60;;;;;;5113884;28;20027;-81
2022/06/16 01:29:46;;;;;;;8.05;6.10;;;384.80;2329.60;;;;;;5113903;28;20028;-82
2022/06/16 01:32:32;;;;;;;7.65;4.90;;;384.80;2329.60;;;;;;5115094;28;20046;-82
2022/06/16 01:35:08;;;;;;;7.72;4.45;;;384.60;2329.60;;;;;;5112809;28;20131;-81
2022/06/16 01:37:53;;;;;;;10.70;5.20;;;384.60;2329.60;;;;;;5115032;28;20038;-82
2022/06/16 01:40:40;;;;;;;12.88;7.05;;;384.60;2329.60;;;;;;5114448;28;20020;-82
2022/06/16 01:43:31;;;;;;;13.35;6.15;;;384.60;2329.60;;;;;;5113398;28;20035;-81
2022/06/16 01:46:14;;;;;;;6.88;4.90;;;384.40;2329.60;;;;;;5113272;28;20483;-81
2022/06/16 01:48:43;;;;;;;7.13;4.82;;;384.20;2329.60;;;;;;5113485;28;20027;-80
2022/06/16 01:51:16;;;;;;;7.45;4.53;;;384.20;2329.60;;;;;;5113456;28;20034;-81
2022/06/16 01:53:48;;;;;;;6.75;4.85;;;384.30;2329.60;;;;;;5115426;27;20028;-82
2022/06/16 01:56:24;;;;;;;8.15;4.63;;;384.40;2329.60;;;;;;5134947;27;20038;-80
2022/06/16 01:58:56;;;;;;;7.22;4.30;;;384.30;2329.60;;;;;;5116418;27;20103;-80
2022/06/16 02:01:27;;;;;;;12.60;5.63;;;384.30;2329.60;;;;;;5116485;27;20030;-80
2022/06/16 02:04:02;;;;;;;8.25;4.40;;;384.10;2329.60;;;;;;5116320;27;20074;-80
2022/06/16 02:06:36;;;;;;;8.93;4.95;;;384.10;2329.60;;;;;;5134786;27;20418;-80
2022/06/16 02:09:10;;;;;;;9.75;4.13;;;384.20;2329.60;;;;;;5116516;27;20029;-80
2022/06/16 02:11:38;;;;;;;7.20;4.05;;;384.20;2329.60;;;;;;5116423;27;20027;-80
2022/06/16 02:14:36;;;;;;;8.05;3.90;;;384.20;2329.60;;;;;;5116176;27;20027;-81
2022/06/16 02:17:03;;;;;;;8.13;4.20;;;384.40;2329.60;;;;;;5115995;28;20088;-80
2022/06/16 02:19:30;;;;;;;6.00;3.85;;;384.30;2329.60;;;;;;5116136;27;20019;-81
2022/06/16 02:21:56;;;;;;;7.18;4.30;;;384.20;2329.60;;;;;;5116127;28;20019;-79
2022/06/16 02:24:27;;;;;;;7.43;4.10;;;384.20;2329.60;;;;;;5116617;28;20031;-80
2022/06/16 02:27:00;;;;;;;5.65;4.00;;;384.20;2329.60;;;;;;5134577;27;20023;-81
2022/06/16 02:29:34;;;;;;;8.05;4.88;;;409.60;2355.20;;;;;;5134881;27;20020;-81
2022/06/16 02:32:13;;;;;;;8.23;4.75;;;384.50;2329.60;;;;;;5134874;28;20472;-81
2022/06/16 02:35:19;;;;;;;8.25;4.55;;;384.40;2329.60;;;;;;5134474;28;20032;-80
2022/06/16 02:37:53;;;;;;;10.43;4.68;;;384.20;2329.60;;;;;;5116196;28;20035;-80
2022/06/16 02:41:14;;;;;;;8.05;4.80;;;384.20;2329.60;;;;;;5134636;28;20028;-80
2022/06/16 02:44:13;;;;;;;7.05;4.20;;;384.30;2329.60;;;;;;5034198;28;20025;-79
2022/06/16 02:46:47;;;;;;;6.10;4.40;;;384.20;2329.60;;;;;;5116113;28;20023;-81
2022/06/16 02:49:34;;;;;;;6.07;3.78;;;384.40;2329.60;;;;;;5115972;28;20029;-80
2022/06/16 02:52:28;;;;;;;9.15;3.70;;;384.40;2329.60;;;;;;5116171;28;20027;-82
2022/06/16 02:55:23;;;;;;;5.78;3.97;;;384.20;2329.60;;;;;;5116434;27;20047;-82
2022/06/16 02:57:56;;;;;;;8.93;3.60;;;384.10;2329.60;;;;;;5110875;27;20115;-81
2022/06/16 03:00:43;;;;;;;6.72;4.13;;;384.10;2329.60;;;;;;5120046;27;20026;-81
2022/06/16 03:03:21;;;;;;;5.70;4.13;;;384.10;2329.60;;;;;;5119644;27;20027;-81
2022/06/16 03:05:54;;;;;;;17.48;5.25;;;384.10;2329.60;;;;;;5120163;27;20702;-81
2022/06/16 03:08:22;;;;;;;7.95;4.85;;;359.20;2329.60;;;;;;5119988;27;20122;-81
2022/06/16 03:10:52;;;;;;;6.30;4.32;;;359.00;2329.60;;;;;;5119517;27;20027;-82
2022/06/16 03:13:30;;;;;;;6.53;4.55;;;359.00;2329.60;;;;;;5119658;27;20507;-81
2022/06/16 03:15:58;;;;;;;7.82;4.05;;;358.90;2329.60;;;;;;5119798;27;20361;-82
2022/06/16 03:18:24;;;;;;;7.88;4.40;;;358.80;2329.60;;;;;;5119589;27;20132;-82
2022/06/16 03:20:51;;;;;;;7.68;4.05;;;358.80;2329.60;;;;;;5119535;27;20083;-81
2022/06/16 03:23:17;;;;;;;7.90;4.30;;;358.70;2329.60;;;;;;5119423;27;20035;-81
2022/06/16 03:25:44;;;;;;;8.98;4.70;;;358.70;2329.60;;;;;;5119431;27;20038;-81
2022/06/16 03:28:11;;;;;;;9.88;4.43;;;358.70;2329.60;;;;;;5119455;27;20027;-83
2022/06/16 03:30:38;;;;;;;6.57;4.93;;;358.60;2329.60;;;;;;5119359;27;20091;-82
2022/06/16 03:33:05;;;;;;;6.78;4.38;;;358.50;2329.60;;;;;;5137820;27;20035;-81
2022/06/16 03:35:31;;;;;;;9.02;4.13;;;358.70;2329.60;;;;;;5119627;27;20023;-82
2022/06/16 03:38:02;;;;;;;9.70;4.43;;;358.80;2329.60;;;;;;5119396;27;20023;-80
2022/06/16 03:40:28;;;;;;;8.07;4.95;;;359.00;2329.60;;;;;;5119887;27;20031;-82
2022/06/16 03:42:54;;;;;;;11.75;4.18;;;359.00;2329.60;;;;;;5119413;27;20429;-80
2022/06/16 03:45:20;;;;;;;11.00;4.75;;;359.00;2329.60;;;;;;5119100;27;20502;-80
2022/06/16 03:47:46;;;;;;;9.25;4.70;;;358.90;2329.60;;;;;;5137714;27;20054;-81
2022/06/16 03:50:16;;;;;;;9.88;4.63;;;359.10;2329.60;;;;;;5119242;27;20046;-82
2022/06/16 03:52:43;;;;;;;9.77;5.10;;;359.20;2329.60;;;;;;5118879;27;20041;-81
2022/06/16 03:55:09;;;;;;;8.88;4.78;;;359.20;2329.60;;;;;;5118769;27;20449;-81
2022/06/16 03:57:34;;;;;;;6.88;5.00;;;384.00;2329.60;;;;;;5119082;27;20020;-79
2022/06/16 04:00:00;;;;;;;13.60;5.72;;;384.00;2329.60;;;;;;5118715;27;20035;-81
2022/06/16 04:02:26;;;;;;;6.97;4.13;;;359.30;2329.60;;;;;;5118971;27;20023;-81
2022/06/16 04:04:52;;;;;;;12.85;5.13;;;384.10;2329.60;;;;;;5137262;27;20098;-80
2022/06/16 04:07:18;;;;;;;9.27;4.57;;;384.10;2329.60;;;;;;5118474;27;20027;-81
2022/06/16 04:09:44;;;;;;;8.15;4.57;;;384.00;2329.60;;;;;;5137197;27;20027;-81
2022/06/16 04:12:10;;;;;;;10.65;4.93;;;384.00;2329.60;;;;;;5118306;27;20024;-81
2022/06/16 04:14:37;;;;;;;6.28;4.25;;;384.00;2329.60;;;;;;5118717;27;20053;-81
2022/06/16 04:17:03;;;;;;;8.02;4.60;;;384.00;2329.60;;;;;;5118642;27;20030;-79
2022/06/16 04:19:29;;;;;;;8.90;4.65;;;384.10;2329.60;;;;;;5118283;27;20023;-82
2022/06/16 04:21:54;;;;;;;6.53;4.10;;;384.00;2329.60;;;;;;5118628;27;20032;-81
2022/06/16 04:24:22;;;;;;;5.63;4.20;;;384.20;2329.60;;;;;;5118609;27;20031;-80
2022/06/16 04:26:51;;;;;;;12.18;4.00;;;384.30;2329.60;;;;;;5136662;27;20061;-81
2022/06/16 04:29:18;;;;;;;8.88;4.03;;;384.40;2329.60;;;;;;5118634;27;20023;-81
2022/06/16 04:31:45;;;;;;;7.85;4.43;;;384.40;2329.60;;;;;;5118430;27;20391;-81
2022/06/16 04:34:11;;;;;;;12.05;5.10;;;384.10;2329.60;;;;;;5136459;27;20460;-81
2022/06/16 04:36:37;;;;;;;11.50;4.30;;;384.10;2329.60;;;;;;5118288;27;20051;-81
2022/06/16 04:39:04;;;;;;;7.30;4.53;;;384.30;2329.60;;;;;;5118506;27;20023;-81
2022/06/16 04:41:29;;;;;;;11.52;4.68;;;384.60;2329.60;;;;;;5117983;27;20384;-81
2022/06/16 04:43:55;;;;;;;9.25;4.47;;;384.70;2329.60;;;;;;5118244;27;20034;-80
2022/06/16 04:46:24;;;;;;;7.18;3.90;;;384.70;2329.60;;;;;;5118229;27;20027;-81
2022/06/16 04:48:51;;;;;;;7.55;4.15;;;384.70;2329.60;;;;;;5136667;27;20456;-81
2022/06/16 04:51:17;;;;;;;8.05;4.80;;;384.70;2329.60;;;;;;5117989;27;20118;-81
2022/06/16 04:53:43;;;;;;;11.65;4.53;;;384.90;2329.60;;;;;;5136151;27;20110;-82
2022/06/16 04:56:09;;;;;;;10.27;5.63;;;384.90;2329.60;;;;;;5118030;27;20019;-81
2022/06/16 04:58:34;;;;;;;11.13;6.13;;;384.70;2329.60;;;;;;5118042;27;20110;-81
2022/06/16 05:01:00;;;;;;;10.07;4.75;;;384.70;2329.60;;;;;;5136064;27;20109;-81
2022/06/16 05:03:27;;;;;;;8.43;4.55;;;384.60;2329.60;;;;;;5117857;27;20027;-82
2022/06/16 05:05:55;;;;;;;9.25;5.15;;;384.60;2329.60;;;;;;5117842;27;20375;-81
2022/06/16 05:08:21;;;;;;;11.15;4.80;;;384.70;2329.60;;;;;;5117444;27;20054;-81
2022/06/16 05:10:48;;;;;;;12.70;4.75;;;384.90;2329.60;;;;;;5117664;27;20034;-81
2022/06/16 05:13:14;;;;;;;12.40;4.93;;;384.90;2329.60;;;;;;5117532;27;20027;-80
2022/06/16 05:15:40;;;;;;;10.35;4.70;;;409.60;2355.20;;;;;;5117356;27;20038;-81
2022/06/16 05:18:07;;;;;;;8.05;4.60;;;409.70;2355.20;;;;;;5117009;27;20376;-81
2022/06/16 05:20:33;;;;;;;11.30;5.07;;;409.70;2355.20;;;;;;5135965;27;20027;-82
2022/06/16 05:22:59;;;;;;;7.93;4.95;;;409.90;2355.20;;;;;;5135659;27;20023;-81
2022/06/16 05:25:25;;;;;;;10.25;5.20;;;409.90;2355.20;;;;;;5117466;27;20189;-81
2022/06/16 05:27:51;;;;;;;9.35;5.55;;;410.00;2355.20;;;;;;5117056;27;20027;-81
2022/06/16 05:30:16;;;;;;;11.35;5.28;;;410.20;2355.20;;;;;;5117172;27;20027;-83
2022/06/16 05:32:42;;;;;;;9.57;5.28;;;410.20;2355.20;;;;;;5135791;27;20035;-82
2022/06/16 05:35:09;;;;;;;14.18;6.05;;;410.30;2355.20;;;;;;5117231;27;20055;-82
2022/06/16 05:37:35;;;;;;;11.00;5.40;;;410.40;2355.20;;;;;;5117179;27;20071;-82
2022/06/16 05:40:03;;;;;;;11.80;5.18;;;410.50;2355.20;;;;;;5135395;27;20019;-83
2022/06/16 05:42:29;;;;;;;11.00;4.80;;;435.30;2355.20;;;;;;5117197;27;20093;-81
2022/06/16 05:44:55;;;;;;;12.63;5.00;;;435.30;2355.20;;;;;;5116771;27;20027;-82
2022/06/16 05:47:20;;;;;;;6.78;4.57;;;435.50;2355.20;;;;;;5117145;27;20483;-82
2022/06/16 05:49:46;;;;;;;11.18;5.10;;;435.60;2355.20;;;;;;5116964;27;20034;-82
2022/06/16 05:52:15;;;;;;;7.75;4.90;;;435.80;2355.20;;;;;;5116535;27;20019;-82
2022/06/16 05:54:41;;;;;;;9.93;5.65;;;435.80;2355.20;;;;;;5116689;27;20107;-80
2022/06/16 05:57:08;;;;;;;9.82;5.20;;;436.10;2355.20;;;;;;5116574;27;20024;-81
2022/06/16 05:59:35;;;;;;;8.18;4.70;;;435.90;2355.20;;;;;;5135487;27;20524;-81
2022/06/16 06:02:02;;;;;;;7.93;4.88;;;436.10;2355.20;;;;;;5135307;27;20020;-81
2022/06/16 06:04:30;;;;;;;11.30;4.45;;;460.90;2380.80;;;;;;5116570;27;20034;-82
2022/06/16 06:06:56;;;;;;;7.32;4.93;;;461.00;2380.80;;;;;;5116679;27;20027;-82
2022/06/16 06:17:43;;;;;;;12.43;5.18;;;461.50;2380.80;;;;;;5135002;27;20093;-82
2022/06/16 06:20:09;;;;;;;8.95;5.00;;;461.60;2380.80;;;;;;5116439;27;20031;-82
2022/06/16 06:22:35;;;;;;;11.13;5.47;;;461.70;2380.80;;;;;;5116336;27;20080;-82
2022/06/16 06:25:01;;;;;;;13.38;5.82;;;486.50;2380.80;;;;;;5116162;27;20034;-81
2022/06/16 06:27:40;;;;;;;14.82;5.50;;;486.50;2380.80;;;;;;5116516;27;20023;-82
2022/06/16 06:30:35;;;;;;;7.82;4.93;;;486.50;2380.80;;;;;;5133906;27;20324;-82
2022/06/16 06:33:04;;;;;;;9.15;5.10;;;486.60;2380.80;;;;;;5094818;28;20134;-82
2022/06/16 06:35:30;;;;;;;6.80;4.70;;;486.50;2380.80;;;;;;5116388;28;20488;-81
2022/06/16 06:37:56;;;;;;;8.50;4.35;;;486.80;2380.80;;;;;;5116388;28;20030;-81
2022/06/16 06:40:23;;;;;;;9.15;5.03;;;487.00;2380.80;;;;;;5116226;28;20024;-82
2022/06/16 06:42:49;;;;;;;11.38;5.60;;;487.10;2380.80;;;;;;5116330;28;20376;-81
2022/06/16 06:45:16;;;;;;;10.43;4.43;;;487.30;2380.80;;;;;;5115860;28;20027;-82
2022/06/16 06:47:42;;;;;;;10.73;4.82;;;487.30;2380.80;;;;;;5134089;28;20522;-82
2022/06/16 06:50:10;;;;;;;7.43;4.68;;;487.30;2380.80;;;;;;5116212;28;20055;-82
2022/06/16 06:52:36;;;;;;;13.30;4.18;;;512.20;2380.80;;;;;;5116269;28;20035;-80
2022/06/16 06:55:02;;;;;;;11.93;4.50;;;512.50;2380.80;;;;;;5134488;28;20091;-81
2022/06/16 06:57:30;;;;;;;7.93;4.15;;;512.60;2380.80;;;;;;5116091;28;20390;-80
2022/06/16 06:59:56;;;;;;;7.53;4.97;;;512.70;2380.80;;;;;;5116147;28;20400;-80
2022/06/16 07:02:22;;;;;;;10.23;5.20;;;512.80;2380.80;;;;;;5115970;28;20027;-82
2022/06/16 07:04:48;;;;;;;8.02;4.85;;;512.90;2380.80;;;;;;5116067;28;20019;-82
2022/06/16 07:07:19;;;;;;;9.48;4.55;;;537.80;2406.40;;;;;;5115456;28;20038;-81
2022/06/16 07:09:44;;;;;;;10.82;4.38;;;537.80;2406.40;;;;;;5116991;28;20060;-83
2022/06/16 07:12:15;;;;;;;9.98;5.25;;;538.10;2406.40;;;;;;5115954;28;20023;-81
2022/06/16 07:14:45;;;;;;;9.20;5.18;;;538.40;2406.40;;;;;;5134028;28;20097;-83
2022/06/16 07:17:12;;;;;;;11.82;5.32;;;538.40;2406.40;;;;;;5134523;28;20109;-80
2022/06/16 07:19:38;;;;;;;7.70;4.70;;;538.50;2406.40;;;;;;5116042;28;20357;-82
2022/06/16 07:22:06;;;;;;;10.55;4.60;;;563.40;2432.00;;;;;;5115866;28;20110;-81
2022/06/16 07:24:32;;;;;;;16.60;6.75;;;563.60;2432.00;;;;;;5115986;28;20069;-82
2022/06/16 07:26:58;;;;;;;10.18;5.82;;;563.70;2432.00;;;;;;5116021;28;20023;-82
2022/06/16 07:29:24;;;;;;;9.50;4.78;;;538.30;2406.40;;;;;;5137353;28;20024;-79
2022/06/16 07:31:50;;;;;;;14.30;5.60;;;564.00;2432.00;;;;;;5132699;28;20011;-80
2022/06/16 07:34:15;;;;;;;7.78;5.13;;;588.80;2432.00;;;;;;5129627;28;20058;-81
2022/06/16 07:36:42;;;;;;;9.13;5.15;;;589.00;2432.00;;;;;;5120353;28;20113;-81
2022/06/16 07:39:08;;;;;;;8.75;5.15;;;589.20;2432.00;;;;;;5115724;28;20108;-81
2022/06/16 07:41:34;;;;;;;8.80;5.35;;;589.40;2432.00;;;;;;5116936;27;20034;-81
2022/06/16 07:44:16;;;;;;;10.05;5.18;;;589.20;2406.40;;;;;;5119195;27;20035;-80
2022/06/16 07:46:43;;;;;;;9.90;4.95;;;589.10;2432.00;;;;;;5119095;27;20023;-79
2022/06/16 07:49:12;;;;;;;10.35;5.22;;;589.30;2432.00;;;;;;5119149;27;20057;-79
2022/06/16 07:51:39;;;;;;;10.32;6.18;;;589.60;2380.80;;;;;;5118582;27;20122;-79
2022/06/16 07:54:06;;;;;;;13.23;5.80;;;614.50;2329.60;;;;;;5118832;27;20204;-79
2022/06/16 07:56:32;;;;;;;13.60;5.93;;;614.80;2355.20;;;;;;5118659;27;20064;-80
2022/06/16 07:58:58;;;;;;;12.93;5.85;;;614.80;2329.60;;;;;;5118859;27;20468;-79
2022/06/16 08:01:24;;;;;;;9.43;5.70;;;614.80;2278.40;;;;;;5118853;27;20027;-80
2022/06/16 08:03:49;;;;;;;13.70;5.15;;;615.00;2278.40;;;;;;5118533;27;20516;-81
2022/06/16 08:06:19;;;;;;;15.63;5.18;;;615.10;2201.60;;;;;;5118720;27;20029;-81
2022/06/16 08:08:45;;;;;;;9.40;5.10;;;615.20;2176.00;;;;;;5118744;27;20380;-80
2022/06/16 08:13:58;;;;;;;8.27;4.65;;;640.10;2176.00;;;;;;5136975;27;20033;-81
2022/06/16 08:16:24;;;;;;;9.82;4.45;;;640.30;2099.20;;;;;;5118503;27;20108;-80
2022/06/16 08:18:50;;;;;;;8.23;4.30;;;640.50;2073.60;;;;;;5136218;27;20102;-79
2022/06/16 08:21:16;;;;;;;7.90;4.85;;;640.50;2099.20;;;;;;5137101;27;20094;-80
2022/06/16 08:23:42;;;;;;;6.15;4.10;;;640.40;2099.20;;;;;;5136582;27;20472;-79
2022/06/16 08:26:09;;;;;;;12.25;4.57;;;640.60;2176.00;;;;;;5118076;27;20027;-79
2022/06/16 08:28:38;;;;;;;7.35;4.88;;;640.80;2150.40;;;;;;5136753;27;20027;-80
2022/06/16 08:31:05;;;;;;;12.98;5.28;;;640.70;2150.40;;;;;;5118123;27;20123;-80
2022/06/16 08:33:31;;;;;;;14.88;5.22;;;640.80;2124.80;;;;;;5138487;27;20031;-80
2022/06/16 08:35:57;;;;;;;9.93;4.75;;;;;;;;;;5128341;27;20050;-80
2022/06/16 08:38:23;;;;;;;8.68;4.63;;;;;;;;;;5097647;28;20024;-81
2022/06/16 08:41:11;;;;;;;7.75;3.58;;;640.90;2124.80;;;;;;5116225;28;20023;-80
2022/06/16 08:43:42;;;;;;;9.70;4.70;;;640.60;2124.80;;;;;;5097367;28;20038;-81
2022/06/16 08:46:09;;;;;;;9.47;3.93;;;640.90;2176.00;;;;;;5097474;28;20034;-80
2022/06/16 08:48:46;;;;;;;7.35;4.20;;;665.60;2124.80;;;;;;5103124;27;20023;-81
2022/06/16 08:51:20;;;;;;;13.63;5.03;;;640.70;2099.20;;;;;;5104453;27;20026;-81
2022/06/16 08:53:48;;;;;;;7.15;3.55;;;665.70;2150.40;;;;;;5112140;27;20054;-80
2022/06/16 08:56:23;;;;;;;10.80;4.13;;;666.00;2099.20;;;;;;5134918;28;20023;-80
2022/06/16 08:59:09;;;;;;;11.00;3.70;;;;;;;;;;5119442;28;20441;-79
2022/06/16 09:01:38;;;;;;;8.02;3.63;;;;;;;;;;5114897;28;20019;-79
2022/06/16 09:04:09;;;;;;;8.18;4.10;;;666.20;2099.20;;;;;;5115671;28;20038;-78
2022/06/16 09:06:45;;;;;;;6.20;3.53;;;666.30;2073.60;;;;;;5116143;28;20079;-78
2022/06/16 09:12:17;;;;;;;6.85;3.30;;;;;;;;;;5134574;28;20057;-79
2022/06/16 09:17:40;;;;;;;6.28;3.63;;;;;;;;;;5134368;28;20393;-79
2022/06/16 09:20:06;;;;;;;12.63;6.43;;;;;;;;;;5115536;28;20110;-79
2022/06/16 09:22:52;;;;;;;10.23;5.43;;;;;;;;;;5134478;28;20581;-79
2022/06/16 09:25:45;;;;;;;8.65;3.63;;;691.70;1971.20;;;;;;5095650;28;20469;-82
2022/06/16 09:28:18;;;;;;;7.22;3.90;;;;;;;;;;5095587;28;20028;-79
2022/06/16 09:30:45;;;;;;;9.85;5.30;;;;;;;;;;5095894;28;20019;-78
2022/06/16 09:33:18;;;;;;;6.78;4.43;;;717.10;1894.40;;;;;;5114095;28;20049;-79
2022/06/16 09:35:52;;;;;;;5.72;3.90;;;717.00;1868.80;;;;;;5113697;28;20500;-79
2022/06/16 09:38:25;;;;;;;7.95;4.22;;;716.80;1792.00;;;;;;5095625;28;20080;-79
2022/06/16 09:41:00;;;;;;;7.45;3.58;;;716.90;1868.80;;;;;;5095691;28;20031;-81
2022/06/16 09:43:33;;;;;;;7.07;3.05;;;717.30;1792.00;;;;;;5113601;28;20080;-79
2022/06/16 09:46:14;;;;;;;5.53;3.10;;;717.40;1715.20;;;;;;5113843;28;20457;-79
2022/06/16 09:48:43;;;;;;;7.75;3.70;;;716.90;1689.60;;;;;;5113325;28;20027;-78
2022/06/16 09:51:16;;;;;;;5.50;2.92;;;717.20;1740.80;;;;;;5113719;28;20524;-76
2022/06/16 09:53:49;;;;;;;5.60;2.80;;;717.50;1715.20;;;;;;5049738;28;1285793;-79
2022/06/16 09:56:23;;;;;;;5.88;3.35;;;717.20;1715.20;;;;;;5100575;28;20039;-78
2022/06/16 09:58:54;;;;;;;5.68;3.38;;;717.30;1689.60;;;;;;5119378;27;20392;-78
2022/06/16 10:01:27;;;;;;;10.47;7.03;;;717.50;1664.00;;;;;;5096173;28;20423;-78
2022/06/16 10:04:02;;;;;;;5.90;3.20;;;742.40;1612.80;;;;;;5095784;28;20031;-80
2022/06/16 10:06:34;;;;;;;7.30;4.60;;;;;;;;;;5096182;28;20090;-81
2022/06/16 10:09:20;;;;;;;14.35;10.10;;;742.90;1612.80;;;;;;5096192;28;20052;-79
2022/06/16 10:12:10;;;;;;;8.13;6.53;;;743.00;1612.80;;;;;;5096228;28;20051;-80
2022/06/16 10:14:36;;;;;;;4.32;2.95;;;743.30;1587.20;;;;;;5058515;28;20096;-82
2022/06/16 10:17:05;;;;;;;8.57;3.25;;;743.20;1587.20;;;;;;5095698;28;20020;-81
2022/06/16 10:19:34;;;;;;;8.00;3.05;;;743.00;1587.20;;;;;;5095455;28;20024;-80
2022/06/16 10:22:01;;;;;;;8.85;3.20;;;743.00;1612.80;;;;;;5114449;28;20054;-81
2022/06/16 10:24:47;;;;;;;5.45;2.50;;;743.20;1638.40;;;;;;5114139;28;20034;-81
2022/06/16 10:27:16;;;;;;;4.97;3.03;;;742.80;1612.80;;;;;;5095851;28;20023;-79
2022/06/16 10:29:58;;;;;;;4.70;2.97;;;742.80;1664.00;;;;;;5095699;28;20023;-79
2022/06/16 10:32:45;;;;;;;6.95;3.05;;;743.20;1638.40;;;;;;5095828;28;20032;-80
2022/06/16 10:35:20;;;;;;;3.75;2.30;;;768.30;1587.20;;;;;;5113961;28;20106;-81
2022/06/16 10:37:49;;;;;;;6.88;2.92;;;743.00;1536.00;;;;;;5113684;28;20581;-80
2022/06/16 10:40:24;;;;;;;4.55;2.53;;;743.10;1561.60;;;;;;5095678;28;20051;-80
2022/06/16 10:42:55;;;;;;;5.15;2.80;;;768.00;1561.60;;;;;;5095912;28;20066;-81
2022/06/16 10:45:27;;;;;;;4.63;2.47;;;768.10;1536.00;;;;;;5113693;28;20024;-81
2022/06/16 10:48:00;;;;;;;4.75;2.65;;;768.60;1587.20;;;;;;5113967;28;20016;-81
2022/06/16 10:50:40;;;;;;;4.95;2.75;;;743.30;1561.60;;;;;;5095684;28;20027;-80
2022/06/16 10:53:21;;;;;;;4.50;2.50;;;743.30;1587.20;;;;;;5095251;28;20036;-82
2022/06/16 10:55:49;;;;;;;4.95;2.88;;;768.10;1612.80;;;;;;5095105;28;20048;-80
2022/06/16 10:58:24;;;;;;;6.07;2.90;;;768.40;1638.40;;;;;;5113565;28;20061;-80
2022/06/16 11:01:00;;;;;;;8.07;3.15;;;768.90;1536.00;;;;;;5095707;28;20108;-82
2022/06/16 11:03:25;;;;;;;4.20;2.65;;;793.60;1510.40;;;;;;5095582;28;20111;-80
2022/06/16 11:05:57;;;;;;;6.50;2.33;;;794.10;1536.00;;;;;;5095379;28;20106;-80
2022/06/16 11:08:24;;;;;;;6.43;3.40;;;;;;;;;;5095649;28;20122;-79
2022/06/16 11:10:57;;;;;;;3.58;2.22;;;819.30;1510.40;;;;;;5110076;28;20039;-82
2022/06/16 11:13:31;;;;;;;3.28;1.85;;;794.40;1459.20;;;;;;5115438;28;20057;-81
2022/06/16 11:15:58;;;;;;;6.65;1.95;;;794.40;1459.20;;;;;;5116623;27;20027;-82
2022/06/16 11:18:28;;;;;;;5.05;2.42;;;794.40;1484.80;;;;;;5119731;27;20459;-80
2022/06/16 11:20:57;;;;;;;5.75;3.83;;;794.40;1433.60;;;;;;5119374;27;20104;-81
2022/06/16 11:23:26;;;;;;;6.97;2.15;;;794.10;1356.80;;;;;;5119672;27;20027;-80
2022/06/16 11:26:18;;;;;;;6.95;2.35;;;794.30;1331.20;;;;;;5138057;27;20155;-79
2022/06/16 11:28:51;;;;;;;5.00;2.90;;;794.30;1382.40;;;;;;5119420;27;20031;-82
2022/06/16 11:31:24;;;;;;;9.15;2.40;;;819.20;1356.80;;;;;;5137646;27;20469;-82
2022/06/16 11:34:07;;;;;;;4.90;2.05;;;794.20;1356.80;;;;;;5137462;27;20031;-81
2022/06/16 11:37:00;;;;;;;4.15;2.15;;;794.50;1331.20;;;;;;5119110;27;20036;-80
2022/06/16 11:39:44;;;;;;;3.90;2.08;;;794.50;1305.60;;;;;;5119179;27;20030;-76
2022/06/16 11:42:32;;;;;;;5.70;3.17;;;794.40;1305.60;;;;;;5136852;27;20023;-77
2022/06/16 11:45:16;;;;;;;6.20;2.47;;;819.40;1382.40;;;;;;5119050;27;20112;-79
2022/06/16 11:48:06;;;;;;;4.18;2.50;;;819.40;1331.20;;;;;;5136942;27;20304;-78
2022/06/16 11:51:04;;;;;;;5.25;3.13;;;819.80;1305.60;;;;;;5118848;27;20023;-76
2022/06/16 11:53:35;;;;;;;6.68;4.45;;;844.80;1331.20;;;;;;5118601;27;20035;-77
2022/06/16 11:56:16;;;;;;;6.35;3.88;;;845.00;1331.20;;;;;;5118423;27;20023;-77
2022/06/16 11:59:03;;;;;;;6.07;3.00;;;845.20;1331.20;;;;;;5118955;27;20370;-78
2022/06/16 12:01:38;;;;;;;6.70;2.80;;;845.40;1356.80;;;;;;5118408;27;20042;-77
2022/06/16 12:04:10;;;;;;;6.78;3.67;;;845.40;1305.60;;;;;;5118742;27;20031;-77
2022/06/16 12:06:38;;;;;;;;;;;845.50;1356.80;;;;;;5118993;27;20072;-78
2022/06/16 12:09:46;;;;;;;4.78;2.60;;;845.60;1331.20;;;;;;5118189;27;19907;-79
2022/06/16 12:12:33;;;;;;;6.72;2.35;;;844.80;1331.20;;;;;;5107637;27;20032;-78
2022/06/16 12:15:02;;;;;;;7.70;3.03;;;819.80;1331.20;;;;;;5097715;28;20031;-77
2022/06/16 12:18:15;;;;;;;6.55;4.10;;;819.90;1331.20;;;;;;5116207;28;20024;-78
2022/06/16 12:20:56;;;;;;;4.28;2.40;;;844.80;1382.40;;;;;;5053341;28;20032;-77
2022/06/16 12:23:49;;;;;;;8.20;2.38;;;820.10;1331.20;;;;;;5097599;28;20032;-77
2022/06/16 12:26:20;;;;;;;6.32;3.00;;;845.10;1382.40;;;;;;5097838;28;20028;-77
2022/06/16 12:29:13;;;;;;;5.20;2.60;;;845.30;1356.80;;;;;;5098027;28;20042;-79
2022/06/16 12:31:42;;;;;;;7.35;4.72;;;;;;;;;;5116210;28;20464;-78
2022/06/16 12:34:20;;;;;;;4.43;1.98;;;870.40;1356.80;;;;;;5097490;28;20019;-78
2022/06/16 12:36:51;;;;;;;8.85;5.72;;;845.50;1305.60;;;;;;5097455;28;20028;-77
2022/06/16 12:39:47;;;;;;;6.32;3.25;;;870.40;1331.20;;;;;;5097586;28;20024;-78
2022/06/16 12:42:19;;;;;;;4.22;2.42;;;870.40;1331.20;;;;;;5104994;28;20036;-77
2022/06/16 12:45:09;;;;;;;6.80;4.82;;;845.70;1305.60;;;;;;5097183;28;20031;-77
2022/06/16 12:47:45;;;;;;;4.35;2.78;;;870.50;1356.80;;;;;;5097379;28;20024;-78
2022/06/16 12:50:35;;;;;;;4.25;2.63;;;845.50;1305.60;;;;;;5115352;28;20043;-77
2022/06/16 12:53:20;;;;;;;6.88;2.85;;;845.50;1331.20;;;;;;5097005;28;20047;-77
2022/06/16 12:55:57;;;;;;;7.47;2.97;;;845.20;1331.20;;;;;;5096671;28;20089;-77
2022/06/16 12:58:43;;;;;;;5.82;3.38;;;845.20;1331.20;;;;;;5114923;28;20070;-76
2022/06/16 13:01:11;;;;;;;5.03;2.97;;;845.50;1331.20;;;;;;5097476;28;20027;-77
2022/06/16 13:04:09;;;;;;;5.50;3.30;;;845.30;1331.20;;;;;;5096952;28;20028;-77
2022/06/16 13:06:36;;;;;;;9.40;2.85;;;845.60;1331.20;;;;;;5041915;28;20027;-77